»·PEaware :: N8DL KEUG-KPSC

N8DL :: KEUG-KPSC

FLIGHT INFORMATION

Flight Status: Arrived
Operator: Privately registered:
United States
More flights under this callsign
Pilot: Dean L. (8400)
Aircraft: CESSNA 550 CITATION 2/S2/BRAVO
(C550)
More flights by this aircraft type
Origin: KEUG Mahlon Sweet
United States
Destination: KPSC Tri-Cities
United States
More flights between these airports :: More routes between these airports
Route: +EUG1 EUG V121 DSD V536 PDT
File this flight plan on PilotEdge
Remarks:
Altitude:
(Current/Filed)
31,000ft
Speed:
(Current/Filed)
400kts
Departed: 05-Oct-18 02:54 PM
Arrived: 05-Oct-18 03:47 PM
Distance/Time
Traveled:
216nm/0:53
Distance/Time
To Go:
Arrived

Flight Plot

Page will automatically refresh every two minutes.

Flight plan parsing failed; only flown route is shown


Map Options




Map Legend


Flown Route
Filed Route
Departure Airport
Arrival Airport
Navaid (VOR, NDB)
Fix

Horizontal Profiles

Position Reports

Time Latitude Longitude Heading Altitude Ground
Speed
05-Oct-18 14:41 44.118629 -123.214216 38 372ft 0kts
05-Oct-18 14:42 44.118629 -123.214216 38 372ft 0kts
05-Oct-18 14:43 44.118629 -123.214216 38 372ft 0kts
05-Oct-18 14:44 44.118629 -123.214216 38 372ft 0kts
05-Oct-18 14:45 44.118629 -123.214216 38 372ft 0kts
05-Oct-18 14:46 44.118629 -123.214216 38 372ft 0kts
05-Oct-18 14:47 44.118629 -123.214216 38 372ft 0kts
05-Oct-18 14:48 44.118629 -123.214216 38 372ft 0kts
05-Oct-18 14:49 44.120688 -123.214332 24 372ft 11kts
05-Oct-18 14:50 44.122962 -123.215950 321 372ft 8kts
05-Oct-18 14:51 44.124690 -123.217118 358 372ft 7kts
05-Oct-18 14:52 44.128197 -123.217210 358 372ft 17kts
05-Oct-18 14:53 44.133825 -123.217207 5 372ft 16kts
05-Oct-18 14:54 44.135027 -123.217041 5 372ft 0kts
05-Oct-18 14:55 44.135159 -123.217032 357 372ft 6kts
05-Oct-18 14:56 44.126442 -123.219225 179 372ft 115kts
05-Oct-18 14:57 44.085454 -123.216452 178 2759ft 160kts
05-Oct-18 14:58 44.039301 -123.211571 178 5874ft 171kts
05-Oct-18 14:59 44.011542 -123.164046 59 8504ft 213kts
05-Oct-18 15:00 44.075372 -123.148933 4 9231ft 298kts
05-Oct-18 15:01 44.134901 -123.078753 80 11662ft 328kts
05-Oct-18 15:02 44.141939 -122.949915 80 13152ft 334kts
05-Oct-18 15:03 44.151388 -122.820251 81 13843ft 338kts
05-Oct-18 15:04 44.160292 -122.696895 81 15569ft 316kts
05-Oct-18 15:05 44.169179 -122.573650 81 16975ft 323kts
05-Oct-18 15:06 44.178136 -122.447448 82 18822ft 331kts
05-Oct-18 15:07 44.187151 -122.318280 82 20600ft 338kts
05-Oct-18 15:08 44.196179 -122.186729 83 22153ft 344kts
05-Oct-18 15:09 44.205199 -122.052987 83 23412ft 349kts
05-Oct-18 15:10 44.214206 -121.917054 83 24605ft 356kts
05-Oct-18 15:11 44.223228 -121.778190 83 25860ft 364kts
05-Oct-18 15:12 44.232282 -121.636146 83 27101ft 371kts
05-Oct-18 15:13 44.241341 -121.491123 83 28284ft 378kts
05-Oct-18 15:14 44.251125 -121.343350 77 29435ft 385kts
05-Oct-18 15:15 44.306178 -121.219796 43 30488ft 379kts
05-Oct-18 15:16 44.376964 -121.108044 43 31069ft 394kts
05-Oct-18 15:17 44.451534 -120.989971 44 31052ft 414kts
05-Oct-18 15:18 44.528701 -120.867250 44 30961ft 428kts
05-Oct-18 15:19 44.608594 -120.739712 45 29551ft 454kts
05-Oct-18 15:20 44.690317 -120.608501 45 28059ft 438kts
05-Oct-18 15:21 44.769736 -120.480476 45 26463ft 427kts
05-Oct-18 15:22 44.847011 -120.355362 45 24863ft 420kts
05-Oct-18 15:23 44.921484 -120.234219 45 23263ft 393kts
05-Oct-18 15:24 44.991770 -120.119500 44 21659ft 381kts
05-Oct-18 15:25 45.060386 -120.007044 45 20064ft 377kts
05-Oct-18 15:26 45.128515 -119.894880 45 18463ft 372kts
05-Oct-18 15:27 45.195279 -119.784531 46 16863ft 364kts
05-Oct-18 15:28 45.260383 -119.676508 46 15263ft 355kts
05-Oct-18 15:29 45.321424 -119.574833 47 13657ft 321kts
05-Oct-18 15:30 45.378315 -119.479800 49 12057ft 312kts
05-Oct-18 15:31 45.433836 -119.386644 49 11004ft 295kts
05-Oct-18 15:32 45.484038 -119.302168 49 10996ft 268kts
05-Oct-18 15:33 45.531074 -119.222819 49 10999ft 257kts
05-Oct-18 15:34 45.576878 -119.145302 49 11000ft 253kts
05-Oct-18 15:35 45.622076 -119.068624 49 11000ft 251kts
05-Oct-18 15:36 45.669909 -118.987282 49 10531ft 294kts
05-Oct-18 15:37 45.743399 -118.951724 343 9043ft 272kts
05-Oct-18 15:38 45.809259 -118.972941 343 7546ft 218kts
05-Oct-18 15:39 45.865374 -118.990445 344 6038ft 198kts
05-Oct-18 15:40 45.918532 -119.007009 344 4535ft 197kts
05-Oct-18 15:41 45.976682 -119.025148 345 4003ft 213kts
05-Oct-18 15:42 46.033720 -119.042967 345 4003ft 206kts
05-Oct-18 15:43 46.086544 -119.054345 358 3846ft 176kts
05-Oct-18 15:44 46.136107 -119.053426 359 2919ft 160kts
05-Oct-18 15:45 46.177568 -119.050773 1 1691ft 144kts
05-Oct-18 15:46 46.210183 -119.060503 339 1424ft 110kts
05-Oct-18 15:47 46.239330 -119.081135 318 1083ft 131kts
05-Oct-18 15:48 46.259832 -119.108831 314 410ft 52kts
05-Oct-18 15:49 46.262586 -119.111107 67 410ft 3kts
05-Oct-18 15:50 46.263185 -119.105382 147 410ft 10kts
05-Oct-18 15:51 46.263114 -119.105416 259 410ft 0kts
05-Oct-18 15:52 46.263114 -119.105420 259 410ft 0kts
05-Oct-18 15:53 46.263113 -119.105425 259 410ft 0kts
05-Oct-18 15:54 46.263113 -119.105429 259 410ft 0kts
05-Oct-18 15:55 46.263112 -119.105434 259 410ft 0kts
05-Oct-18 15:56 46.263111 -119.105438 259 410ft 0kts
05-Oct-18 15:57 46.263111 -119.105443 259 410ft 0kts
05-Oct-18 15:58 46.263110 -119.105447 259 410ft 0kts
05-Oct-18 15:59 46.263110 -119.105449 259 410ft 0kts
05-Oct-18 16:00 46.263110 -119.105449 259 410ft 0kts
05-Oct-18 16:01 46.263110 -119.105449 259 410ft 0kts

Navigation Log

Ident Type
Flight plan parsing failed, navigation log unavailable